Aviation Digital Data Service (ADDS)

Output produced by METARs form (1113 UTC 22 November 2017)
found at http://aviationweather.gov/adds/metars/
 
KBDR 220837Z 2209/2306 VRB04KT P6SM SCT045 BKN150 
     FM221000 VRB04KT 6SM -RA OVC050 
     FM221200 VRB04KT 5SM -RA BR OVC015 
     FM221400 33006KT 5SM -SHRA BR OVC010 
     FM221700 33011G18KT P6SM SCT020 BKN030 
     FM221900 33015G22KT P6SM SCT040 SCT250 
     FM230200 32011G18KT P6SM SKC 
     FM230500 32008KT P6SM SKC